sensor_id;sensor_type;location;lat;lon;timestamp;pressure;altitude;pressure_sealevel;temperature;humidity
7966;BME280;4028;43.272;26.932;2023-03-03T00:01:22;99466.31;;;6.16;100.00
7966;BME280;4028;43.272;26.932;2023-03-03T00:03:51;99467.16;;;6.17;100.00
7966;BME280;4028;43.272;26.932;2023-03-03T00:06:17;99466.44;;;6.15;100.00
7966;BME280;4028;43.272;26.932;2023-03-03T00:08:43;99461.69;;;6.07;100.00
7966;BME280;4028;43.272;26.932;2023-03-03T00:11:09;99455.94;;;6.02;100.00
7966;BME280;4028;43.272;26.932;2023-03-03T00:13:55;99457.72;;;6.02;100.00
7966;BME280;4028;43.272;26.932;2023-03-03T00:16:44;99456.16;;;5.99;100.00
7966;BME280;4028;43.272;26.932;2023-03-03T00:19:17;99446.69;;;5.96;100.00
7966;BME280;4028;43.272;26.932;2023-03-03T00:21:48;99451.00;;;5.97;100.00
7966;BME280;4028;43.272;26.932;2023-03-03T00:24:36;99447.00;;;5.92;100.00
7966;BME280;4028;43.272;26.932;2023-03-03T00:27:33;99442.16;;;5.98;100.00
7966;BME280;4028;43.272;26.932;2023-03-03T00:29:59;99438.09;;;5.94;100.00
7966;BME280;4028;43.272;26.932;2023-03-03T00:32:29;99439.22;;;6.03;100.00
7966;BME280;4028;43.272;26.932;2023-03-03T00:35:01;99427.97;;;5.88;100.00
7966;BME280;4028;43.272;26.932;2023-03-03T00:37:42;99439.66;;;5.97;100.00
7966;BME280;4028;43.272;26.932;2023-03-03T00:40:25;99431.34;;;5.90;100.00
7966;BME280;4028;43.272;26.932;2023-03-03T00:42:53;99426.41;;;5.86;100.00
7966;BME280;4028;43.272;26.932;2023-03-03T00:45:37;99427.16;;;6.01;100.00
7966;BME280;4028;43.272;26.932;2023-03-03T00:48:20;99428.31;;;6.09;100.00
7966;BME280;4028;43.272;26.932;2023-03-03T00:50:46;99422.63;;;6.03;100.00
7966;BME280;4028;43.272;26.932;2023-03-03T00:53:19;99427.56;;;6.07;100.00
7966;BME280;4028;43.272;26.932;2023-03-03T00:55:46;99416.31;;;6.05;100.00
7966;BME280;4028;43.272;26.932;2023-03-03T00:58:12;99415.06;;;5.98;100.00
7966;BME280;4028;43.272;26.932;2023-03-03T01:00:39;99415.81;;;6.00;100.00
7966;BME280;4028;43.272;26.932;2023-03-03T01:03:12;99413.50;;;5.95;100.00
7966;BME280;4028;43.272;26.932;2023-03-03T01:05:38;99406.25;;;5.99;100.00
7966;BME280;4028;43.272;26.932;2023-03-03T01:08:04;99396.03;;;5.82;100.00
7966;BME280;4028;43.272;26.932;2023-03-03T01:10:33;99391.03;;;5.79;100.00
7966;BME280;4028;43.272;26.932;2023-03-03T01:13:00;99379.06;;;5.74;100.00
7966;BME280;4028;43.272;26.932;2023-03-03T01:15:26;99395.00;;;5.84;100.00
7966;BME280;4028;43.272;26.932;2023-03-03T01:17:53;99392.97;;;5.88;100.00
7966;BME280;4028;43.272;26.932;2023-03-03T01:20:19;99392.69;;;5.92;100.00
7966;BME280;4028;43.272;26.932;2023-03-03T01:22:44;99388.91;;;5.84;100.00
7966;BME280;4028;43.272;26.932;2023-03-03T01:25:10;99397.31;;;5.89;100.00
7966;BME280;4028;43.272;26.932;2023-03-03T01:27:35;99396.56;;;5.87;100.00
7966;BME280;4028;43.272;26.932;2023-03-03T01:30:03;99359.13;;;5.59;100.00
7966;BME280;4028;43.272;26.932;2023-03-03T01:32:29;99390.47;;;5.86;100.00
7966;BME280;4028;43.272;26.932;2023-03-03T01:34:55;99372.22;;;5.72;100.00
7966;BME280;4028;43.272;26.932;2023-03-03T01:37:21;99386.59;;;5.79;100.00
7966;BME280;4028;43.272;26.932;2023-03-03T01:39:53;99374.00;;;5.71;100.00
7966;BME280;4028;43.272;26.932;2023-03-03T01:42:20;99374.31;;;5.80;100.00
7966;BME280;4028;43.272;26.932;2023-03-03T01:44:46;99366.75;;;5.75;100.00
7966;BME280;4028;43.272;26.932;2023-03-03T01:47:21;99375.28;;;5.79;100.00
7966;BME280;4028;43.272;26.932;2023-03-03T01:50:04;99370.94;;;5.78;100.00
7966;BME280;4028;43.272;26.932;2023-03-03T01:55:03;99377.03;;;5.91;100.00
7966;BME280;4028;43.272;26.932;2023-03-03T01:57:32;99370.41;;;5.85;100.00
7966;BME280;4028;43.272;26.932;2023-03-03T02:00:02;99374.38;;;5.91;100.00
7966;BME280;4028;43.272;26.932;2023-03-03T02:02:28;99364.22;;;5.86;100.00
7966;BME280;4028;43.272;26.932;2023-03-03T02:04:54;99362.66;;;5.84;100.00
7966;BME280;4028;43.272;26.932;2023-03-03T02:07:21;99353.31;;;5.80;100.00
7966;BME280;4028;43.272;26.932;2023-03-03T02:09:59;99359.06;;;5.85;100.00
7966;BME280;4028;43.272;26.932;2023-03-03T02:12:35;99357.59;;;5.81;100.00
7966;BME280;4028;43.272;26.932;2023-03-03T02:15:16;99361.91;;;5.82;100.00
7966;BME280;4028;43.272;26.932;2023-03-03T02:17:44;99352.34;;;5.81;100.00
7966;BME280;4028;43.272;26.932;2023-03-03T02:22:48;99358.31;;;5.83;100.00
7966;BME280;4028;43.272;26.932;2023-03-03T02:25:23;99351.19;;;5.85;100.00
7966;BME280;4028;43.272;26.932;2023-03-03T02:27:51;99351.91;;;5.87;100.00
7966;BME280;4028;43.272;26.932;2023-03-03T02:30:20;99353.06;;;5.83;100.00
7966;BME280;4028;43.272;26.932;2023-03-03T02:32:46;99347.09;;;5.81;100.00
7966;BME280;4028;43.272;26.932;2023-03-03T02:35:41;99347.22;;;5.79;100.00
7966;BME280;4028;43.272;26.932;2023-03-03T02:38:20;99345.88;;;5.73;100.00
7966;BME280;4028;43.272;26.932;2023-03-03T02:41:10;99342.38;;;5.73;100.00
7966;BME280;4028;43.272;26.932;2023-03-03T02:44:01;99345.34;;;5.68;100.00
7966;BME280;4028;43.272;26.932;2023-03-03T02:46:40;99349.03;;;5.66;100.00
7966;BME280;4028;43.272;26.932;2023-03-03T02:49:07;99357.00;;;5.64;100.00
7966;BME280;4028;43.272;26.932;2023-03-03T02:51:34;99344.34;;;5.82;100.00
7966;BME280;4028;43.272;26.932;2023-03-03T02:54:00;99352.56;;;5.78;100.00
7966;BME280;4028;43.272;26.932;2023-03-03T02:56:25;99356.25;;;5.75;100.00
7966;BME280;4028;43.272;26.932;2023-03-03T02:58:51;99356.88;;;5.79;100.00
7966;BME280;4028;43.272;26.932;2023-03-03T03:01:16;99350.94;;;5.64;100.00
7966;BME280;4028;43.272;26.932;2023-03-03T03:03:42;99358.06;;;5.62;100.00
7966;BME280;4028;43.272;26.932;2023-03-03T03:06:08;99361.00;;;5.57;100.00
7966;BME280;4028;43.272;26.932;2023-03-03T03:08:34;99360.78;;;5.60;100.00
7966;BME280;4028;43.272;26.932;2023-03-03T03:10:59;99352.81;;;5.62;100.00
7966;BME280;4028;43.272;26.932;2023-03-03T03:13:25;99334.22;;;5.52;100.00
7966;BME280;4028;43.272;26.932;2023-03-03T03:15:50;99356.69;;;5.69;100.00
7966;BME280;4028;43.272;26.932;2023-03-03T03:18:16;99355.94;;;5.67;100.00
7966;BME280;4028;43.272;26.932;2023-03-03T03:20:42;99353.88;;;5.59;100.00
7966;BME280;4028;43.272;26.932;2023-03-03T03:23:09;99347.78;;;5.59;100.00
7966;BME280;4028;43.272;26.932;2023-03-03T03:25:35;99343.69;;;5.55;100.00
7966;BME280;4028;43.272;26.932;2023-03-03T03:28:07;99339.47;;;5.52;100.00
7966;BME280;4028;43.272;26.932;2023-03-03T03:30:34;99331.72;;;5.51;100.00
7966;BME280;4028;43.272;26.932;2023-03-03T03:33:00;99339.41;;;5.54;100.00
7966;BME280;4028;43.272;26.932;2023-03-03T03:35:26;99335.59;;;5.58;100.00
7966;BME280;4028;43.272;26.932;2023-03-03T03:37:51;99328.78;;;5.55;100.00
7966;BME280;4028;43.272;26.932;2023-03-03T03:40:17;99332.56;;;5.51;100.00
7966;BME280;4028;43.272;26.932;2023-03-03T03:42:42;99328.25;;;5.50;100.00
7966;BME280;4028;43.272;26.932;2023-03-03T03:45:08;99326.47;;;5.51;100.00
7966;BME280;4028;43.272;26.932;2023-03-03T03:47:34;99326.88;;;5.57;100.00
7966;BME280;4028;43.272;26.932;2023-03-03T03:49:59;99329.41;;;5.59;100.00
7966;BME280;4028;43.272;26.932;2023-03-03T03:52:24;99319.63;;;5.61;100.00
7966;BME280;4028;43.272;26.932;2023-03-03T03:54:50;99313.75;;;5.57;100.00
7966;BME280;4028;43.272;26.932;2023-03-03T03:57:15;99312.19;;;5.55;100.00
7966;BME280;4028;43.272;26.932;2023-03-03T03:59:41;99308.50;;;5.57;100.00
7966;BME280;4028;43.272;26.932;2023-03-03T04:02:06;99308.81;;;5.53;100.00
7966;BME280;4028;43.272;26.932;2023-03-03T04:04:32;99303.16;;;5.46;100.00
7966;BME280;4028;43.272;26.932;2023-03-03T04:06:57;99300.94;;;5.53;100.00
7966;BME280;4028;43.272;26.932;2023-03-03T04:09:23;99303.56;;;5.53;100.00
7966;BME280;4028;43.272;26.932;2023-03-03T04:11:49;99300.84;;;5.54;100.00
7966;BME280;4028;43.272;26.932;2023-03-03T04:14:15;99305.56;;;5.62;100.00
7966;BME280;4028;43.272;26.932;2023-03-03T04:16:40;99305.16;;;5.55;100.00
7966;BME280;4028;43.272;26.932;2023-03-03T04:19:05;99307.47;;;5.47;100.00
7966;BME280;4028;43.272;26.932;2023-03-03T04:21:31;99296.56;;;5.53;100.00
7966;BME280;4028;43.272;26.932;2023-03-03T04:23:56;99274.03;;;5.38;100.00
7966;BME280;4028;43.272;26.932;2023-03-03T04:26:22;99301.19;;;5.50;100.00
7966;BME280;4028;43.272;26.932;2023-03-03T04:28:47;99297.47;;;5.52;100.00
7966;BME280;4028;43.272;26.932;2023-03-03T04:31:13;99290.03;;;5.59;100.00
7966;BME280;4028;43.272;26.932;2023-03-03T04:33:38;99296.44;;;5.55;100.00
7966;BME280;4028;43.272;26.932;2023-03-03T04:36:04;99299.69;;;5.58;100.00
7966;BME280;4028;43.272;26.932;2023-03-03T04:38:30;99293.25;;;5.62;100.00
7966;BME280;4028;43.272;26.932;2023-03-03T04:40:56;99300.41;;;5.60;100.00
7966;BME280;4028;43.272;26.932;2023-03-03T04:43:21;99297.78;;;5.60;100.00
7966;BME280;4028;43.272;26.932;2023-03-03T04:45:47;99286.22;;;5.63;100.00
7966;BME280;4028;43.272;26.932;2023-03-03T04:48:13;99289.72;;;5.63;100.00
7966;BME280;4028;43.272;26.932;2023-03-03T04:50:38;99287.59;;;5.68;100.00
7966;BME280;4028;43.272;26.932;2023-03-03T04:53:04;99294.28;;;5.72;100.00
7966;BME280;4028;43.272;26.932;2023-03-03T04:55:29;99296.50;;;5.66;100.00
7966;BME280;4028;43.272;26.932;2023-03-03T04:57:54;99291.25;;;5.66;100.00
7966;BME280;4028;43.272;26.932;2023-03-03T05:00:20;99284.78;;;5.59;100.00
7966;BME280;4028;43.272;26.932;2023-03-03T05:02:47;99295.78;;;5.64;100.00
7966;BME280;4028;43.272;26.932;2023-03-03T05:05:13;99290.63;;;5.62;100.00
7966;BME280;4028;43.272;26.932;2023-03-03T05:07:39;99302.59;;;5.66;100.00
7966;BME280;4028;43.272;26.932;2023-03-03T05:10:06;99298.63;;;5.61;100.00
7966;BME280;4028;43.272;26.932;2023-03-03T05:12:32;99304.72;;;5.61;100.00
7966;BME280;4028;43.272;26.932;2023-03-03T05:14:58;99314.50;;;5.59;100.00
7966;BME280;4028;43.272;26.932;2023-03-03T05:17:23;99313.53;;;5.60;100.00
7966;BME280;4028;43.272;26.932;2023-03-03T05:19:48;99318.34;;;5.66;100.00
7966;BME280;4028;43.272;26.932;2023-03-03T05:22:14;99315.09;;;5.63;100.00
7966;BME280;4028;43.272;26.932;2023-03-03T05:24:39;99316.88;;;5.62;100.00
7966;BME280;4028;43.272;26.932;2023-03-03T05:27:07;99323.31;;;5.58;100.00
7966;BME280;4028;43.272;26.932;2023-03-03T05:29:32;99321.53;;;5.59;100.00
7966;BME280;4028;43.272;26.932;2023-03-03T05:31:58;99324.34;;;5.68;100.00
7966;BME280;4028;43.272;26.932;2023-03-03T05:34:23;99320.16;;;5.66;100.00
7966;BME280;4028;43.272;26.932;2023-03-03T05:36:50;99322.66;;;5.67;100.00
7966;BME280;4028;43.272;26.932;2023-03-03T05:39:15;99324.88;;;5.73;100.00
7966;BME280;4028;43.272;26.932;2023-03-03T05:41:41;99323.06;;;5.74;100.00
7966;BME280;4028;43.272;26.932;2023-03-03T05:44:07;99326.31;;;5.78;100.00
7966;BME280;4028;43.272;26.932;2023-03-03T05:46:32;99327.13;;;5.78;100.00
7966;BME280;4028;43.272;26.932;2023-03-03T05:48:58;99328.00;;;5.79;100.00
7966;BME280;4028;43.272;26.932;2023-03-03T05:51:24;99330.50;;;5.80;100.00
7966;BME280;4028;43.272;26.932;2023-03-03T05:53:49;99328.94;;;5.78;100.00
7966;BME280;4028;43.272;26.932;2023-03-03T05:56:15;99299.69;;;5.58;100.00
7966;BME280;4028;43.272;26.932;2023-03-03T05:58:40;99327.75;;;5.82;100.00
7966;BME280;4028;43.272;26.932;2023-03-03T06:01:06;99325.88;;;5.84;100.00
7966;BME280;4028;43.272;26.932;2023-03-03T06:03:31;99317.91;;;5.85;100.00
7966;BME280;4028;43.272;26.932;2023-03-03T06:05:57;99322.91;;;5.88;100.00
7966;BME280;4028;43.272;26.932;2023-03-03T06:08:23;99315.38;;;5.84;100.00
7966;BME280;4028;43.272;26.932;2023-03-03T06:10:48;99315.72;;;5.79;100.00
7966;BME280;4028;43.272;26.932;2023-03-03T06:13:14;99315.38;;;5.84;100.00
7966;BME280;4028;43.272;26.932;2023-03-03T06:15:39;99310.13;;;5.84;100.00
7966;BME280;4028;43.272;26.932;2023-03-03T06:18:04;99315.91;;;5.89;100.00
7966;BME280;4028;43.272;26.932;2023-03-03T06:20:30;99318.09;;;5.82;100.00
7966;BME280;4028;43.272;26.932;2023-03-03T06:22:56;99322.00;;;5.77;100.00
7966;BME280;4028;43.272;26.932;2023-03-03T06:25:21;99318.03;;;5.71;100.00
7966;BME280;4028;43.272;26.932;2023-03-03T06:27:47;99321.81;;;5.80;100.00
7966;BME280;4028;43.272;26.932;2023-03-03T06:30:13;99327.78;;;5.94;100.00
7966;BME280;4028;43.272;26.932;2023-03-03T06:32:38;99328.28;;;5.99;100.00
7966;BME280;4028;43.272;26.932;2023-03-03T06:35:04;99326.16;;;6.05;100.00
7966;BME280;4028;43.272;26.932;2023-03-03T06:37:30;99328.34;;;6.11;100.00
7966;BME280;4028;43.272;26.932;2023-03-03T06:39:55;99327.91;;;6.17;100.00
7966;BME280;4028;43.272;26.932;2023-03-03T06:42:21;99324.66;;;6.13;100.00
7966;BME280;4028;43.272;26.932;2023-03-03T06:44:48;99332.44;;;6.15;100.00
7966;BME280;4028;43.272;26.932;2023-03-03T06:47:13;99329.34;;;6.21;100.00
7966;BME280;4028;43.272;26.932;2023-03-03T06:49:39;99330.69;;;6.27;100.00
7966;BME280;4028;43.272;26.932;2023-03-03T06:52:13;99328.91;;;6.27;100.00
7966;BME280;4028;43.272;26.932;2023-03-03T06:54:39;99334.03;;;6.29;100.00
7966;BME280;4028;43.272;26.932;2023-03-03T06:57:31;99325.88;;;6.44;100.00
7966;BME280;4028;43.272;26.932;2023-03-03T07:00:22;99311.00;;;6.32;100.00
7966;BME280;4028;43.272;26.932;2023-03-03T07:02:55;99321.06;;;6.38;100.00
7966;BME280;4028;43.272;26.932;2023-03-03T07:05:23;99324.69;;;6.48;100.00
7966;BME280;4028;43.272;26.932;2023-03-03T07:07:50;99329.91;;;6.61;100.00
7966;BME280;4028;43.272;26.932;2023-03-03T07:10:26;99321.53;;;6.67;100.00
7966;BME280;4028;43.272;26.932;2023-03-03T07:12:53;99321.78;;;6.75;100.00
7966;BME280;4028;43.272;26.932;2023-03-03T07:15:22;99319.22;;;6.87;100.00
7966;BME280;4028;43.272;26.932;2023-03-03T07:17:52;99320.53;;;6.92;100.00
7966;BME280;4028;43.272;26.932;2023-03-03T07:20:23;99317.78;;;7.05;100.00
7966;BME280;4028;43.272;26.932;2023-03-03T07:22:49;99317.69;;;7.07;100.00
7966;BME280;4028;43.272;26.932;2023-03-03T07:25:31;99311.25;;;7.22;100.00
7966;BME280;4028;43.272;26.932;2023-03-03T07:28:19;99304.28;;;7.10;100.00
7966;BME280;4028;43.272;26.932;2023-03-03T07:30:46;99310.50;;;7.09;100.00
7966;BME280;4028;43.272;26.932;2023-03-03T07:33:26;99303.09;;;7.02;100.00
7966;BME280;4028;43.272;26.932;2023-03-03T07:35:57;99290.16;;;7.11;100.00
7966;BME280;4028;43.272;26.932;2023-03-03T07:38:41;99309.81;;;7.29;100.00
7966;BME280;4028;43.272;26.932;2023-03-03T07:41:19;99310.28;;;7.12;100.00
7966;BME280;4028;43.272;26.932;2023-03-03T07:43:51;99306.22;;;7.19;100.00
7966;BME280;4028;43.272;26.932;2023-03-03T07:46:36;99307.88;;;7.20;100.00
7966;BME280;4028;43.272;26.932;2023-03-03T07:49:33;99306.34;;;7.28;100.00
7966;BME280;4028;43.272;26.932;2023-03-03T07:52:00;99300.94;;;7.30;100.00
7966;BME280;4028;43.272;26.932;2023-03-03T07:54:37;99301.78;;;7.30;100.00
7966;BME280;4028;43.272;26.932;2023-03-03T07:59:34;99298.09;;;7.33;100.00
7966;BME280;4028;43.272;26.932;2023-03-03T08:02:01;99289.81;;;7.26;100.00
7966;BME280;4028;43.272;26.932;2023-03-03T08:04:46;99293.91;;;7.30;100.00
7966;BME280;4028;43.272;26.932;2023-03-03T08:07:19;99280.25;;;7.25;100.00
7966;BME280;4028;43.272;26.932;2023-03-03T08:09:51;99289.59;;;7.18;100.00
7966;BME280;4028;43.272;26.932;2023-03-03T08:12:30;99288.50;;;7.10;100.00
7966;BME280;4028;43.272;26.932;2023-03-03T08:15:16;99291.97;;;7.10;100.00
7966;BME280;4028;43.272;26.932;2023-03-03T08:17:42;99299.50;;;7.15;100.00
7966;BME280;4028;43.272;26.932;2023-03-03T08:22:59;99290.06;;;7.12;100.00
7966;BME280;4028;43.272;26.932;2023-03-03T08:25:24;99299.63;;;7.24;100.00
7966;BME280;4028;43.272;26.932;2023-03-03T08:27:50;99292.00;;;7.33;100.00
7966;BME280;4028;43.272;26.932;2023-03-03T08:30:15;99295.34;;;7.35;100.00
7966;BME280;4028;43.272;26.932;2023-03-03T08:32:41;99298.31;;;7.41;100.00
7966;BME280;4028;43.272;26.932;2023-03-03T08:35:07;99294.28;;;7.37;100.00
7966;BME280;4028;43.272;26.932;2023-03-03T08:37:32;99295.47;;;7.33;100.00
7966;BME280;4028;43.272;26.932;2023-03-03T08:39:58;99291.13;;;7.21;100.00
7966;BME280;4028;43.272;26.932;2023-03-03T08:42:23;99291.88;;;7.34;100.00
7966;BME280;4028;43.272;26.932;2023-03-03T08:44:49;99283.84;;;7.47;100.00
7966;BME280;4028;43.272;26.932;2023-03-03T08:47:15;99283.47;;;7.40;100.00
7966;BME280;4028;43.272;26.932;2023-03-03T08:49:40;99281.31;;;7.45;100.00
7966;BME280;4028;43.272;26.932;2023-03-03T08:52:06;99277.72;;;7.46;100.00
7966;BME280;4028;43.272;26.932;2023-03-03T08:54:31;99275.00;;;7.48;100.00
7966;BME280;4028;43.272;26.932;2023-03-03T08:56:57;99270.91;;;7.55;100.00
7966;BME280;4028;43.272;26.932;2023-03-03T08:59:22;99269.34;;;7.64;100.00
7966;BME280;4028;43.272;26.932;2023-03-03T09:01:48;99272.09;;;7.62;100.00
7966;BME280;4028;43.272;26.932;2023-03-03T09:04:13;99269.72;;;7.59;100.00
7966;BME280;4028;43.272;26.932;2023-03-03T09:06:39;99269.97;;;7.45;100.00
7966;BME280;4028;43.272;26.932;2023-03-03T09:09:04;99267.69;;;7.40;100.00
7966;BME280;4028;43.272;26.932;2023-03-03T09:11:30;99264.22;;;7.40;100.00
7966;BME280;4028;43.272;26.932;2023-03-03T09:14:16;99265.53;;;7.45;100.00
7966;BME280;4028;43.272;26.932;2023-03-03T09:16:49;99258.59;;;7.44;100.00
7966;BME280;4028;43.272;26.932;2023-03-03T09:19:28;99257.41;;;7.48;100.00
7966;BME280;4028;43.272;26.932;2023-03-03T09:21:57;99256.66;;;7.46;100.00
7966;BME280;4028;43.272;26.932;2023-03-03T09:24:30;99262.75;;;7.47;100.00
7966;BME280;4028;43.272;26.932;2023-03-03T09:27:00;99254.97;;;7.56;100.00
7966;BME280;4028;43.272;26.932;2023-03-03T09:29:30;99245.28;;;7.57;100.00
7966;BME280;4028;43.272;26.932;2023-03-03T09:32:34;99248.19;;;7.54;100.00
7966;BME280;4028;43.272;26.932;2023-03-03T09:35:37;99245.78;;;7.51;100.00
7966;BME280;4028;43.272;26.932;2023-03-03T09:38:31;99242.19;;;7.41;100.00
7966;BME280;4028;43.272;26.932;2023-03-03T09:46:44;99238.50;;;7.10;100.00
7966;BME280;4028;43.272;26.932;2023-03-03T09:57:45;99228.34;;;7.39;100.00
7966;BME280;4028;43.272;26.932;2023-03-03T10:00:48;99230.59;;;7.43;100.00
7966;BME280;4028;43.272;26.932;2023-03-03T10:16:38;99219.06;;;7.67;100.00
7966;BME280;4028;43.272;26.932;2023-03-03T10:25:15;99205.16;;;8.40;100.00
7966;BME280;4028;43.272;26.932;2023-03-03T10:30:20;99194.69;;;8.59;100.00
7966;BME280;4028;43.272;26.932;2023-03-03T10:33:37;99188.09;;;8.65;100.00
7966;BME280;4028;43.272;26.932;2023-03-03T10:41:10;99173.44;;;9.13;100.00
7966;BME280;4028;43.272;26.932;2023-03-03T10:46:43;99162.59;;;9.85;100.00
7966;BME280;4028;43.272;26.932;2023-03-03T11:00:15;99145.03;;;10.79;92.07
7966;BME280;4028;43.272;26.932;2023-03-03T11:05:59;99132.16;;;11.67;76.04
7966;BME280;4028;43.272;26.932;2023-03-03T11:08:48;99126.13;;;12.62;66.88
7966;BME280;4028;43.272;26.932;2023-03-03T11:11:25;99123.13;;;12.99;61.75
7966;BME280;4028;43.272;26.932;2023-03-03T11:14:10;99121.53;;;13.15;62.28
7966;BME280;4028;43.272;26.932;2023-03-03T11:16:44;99116.84;;;13.43;57.84
7966;BME280;4028;43.272;26.932;2023-03-03T11:22:13;99126.16;;;13.47;59.57
7966;BME280;4028;43.272;26.932;2023-03-03T11:27:24;99106.34;;;12.91;55.92
7966;BME280;4028;43.272;26.932;2023-03-03T11:36:49;99095.94;;;13.48;51.73
7966;BME280;4028;43.272;26.932;2023-03-03T11:41:30;99093.59;;;14.26;49.37
7966;BME280;4028;43.272;26.932;2023-03-03T11:44:04;99092.16;;;13.67;50.80
7966;BME280;4028;43.272;26.932;2023-03-03T11:46:47;99095.13;;;13.64;51.08
7966;BME280;4028;43.272;26.932;2023-03-03T11:52:13;99081.13;;;14.51;48.92
7966;BME280;4028;43.272;26.932;2023-03-03T11:57:34;99077.16;;;14.23;47.75
7966;BME280;4028;43.272;26.932;2023-03-03T12:00:18;99069.97;;;14.48;48.50
7966;BME280;4028;43.272;26.932;2023-03-03T12:03:18;99075.19;;;14.00;46.31
7966;BME280;4028;43.272;26.932;2023-03-03T12:08:42;99074.97;;;13.45;49.39
7966;BME280;4028;43.272;26.932;2023-03-03T12:17:00;99056.84;;;12.47;51.38
7966;BME280;4028;43.272;26.932;2023-03-03T12:19:34;99058.28;;;12.68;51.38
7966;BME280;4028;43.272;26.932;2023-03-03T12:33:19;99072.06;;;12.11;62.74
7966;BME280;4028;43.272;26.932;2023-03-03T12:41:54;99064.19;;;12.54;63.87
7966;BME280;4028;43.272;26.932;2023-03-03T12:58:50;99056.56;;;11.99;58.75
7966;BME280;4028;43.272;26.932;2023-03-03T13:04:12;99050.66;;;11.87;61.45
7966;BME280;4028;43.272;26.932;2023-03-03T13:06:51;99048.00;;;11.87;61.36
7966;BME280;4028;43.272;26.932;2023-03-03T13:12:26;99051.28;;;11.63;66.92
7966;BME280;4028;43.272;26.932;2023-03-03T13:20:21;99048.41;;;11.38;75.41
7966;BME280;4028;43.272;26.932;2023-03-03T13:23:35;99054.94;;;11.26;73.55
7966;BME280;4028;43.272;26.932;2023-03-03T13:28:18;99043.63;;;11.06;75.59
7966;BME280;4028;43.272;26.932;2023-03-03T13:30:53;99045.06;;;11.18;78.04
7966;BME280;4028;43.272;26.932;2023-03-03T13:33:29;99040.22;;;11.14;79.97
7966;BME280;4028;43.272;26.932;2023-03-03T13:36:04;99046.72;;;11.02;80.94
7966;BME280;4028;43.272;26.932;2023-03-03T13:38:35;99053.28;;;10.98;88.10
7966;BME280;4028;43.272;26.932;2023-03-03T13:44:07;99054.00;;;10.90;91.28
7966;BME280;4028;43.272;26.932;2023-03-03T13:52:12;99049.97;;;10.68;100.00
7966;BME280;4028;43.272;26.932;2023-03-03T14:00:37;99043.09;;;10.48;100.00
7966;BME280;4028;43.272;26.932;2023-03-03T14:06:05;99037.97;;;10.46;100.00
7966;BME280;4028;43.272;26.932;2023-03-03T14:19:39;99035.09;;;10.20;100.00
7966;BME280;4028;43.272;26.932;2023-03-03T14:25:12;99034.69;;;10.15;100.00
7966;BME280;4028;43.272;26.932;2023-03-03T14:35:38;99038.16;;;10.15;100.00
7966;BME280;4028;43.272;26.932;2023-03-03T14:38:15;99039.59;;;10.10;100.00
7966;BME280;4028;43.272;26.932;2023-03-03T14:40:42;99037.91;;;10.09;100.00
7966;BME280;4028;43.272;26.932;2023-03-03T14:43:25;99040.22;;;10.31;100.00
7966;BME280;4028;43.272;26.932;2023-03-03T14:45:52;99024.38;;;10.22;100.00
7966;BME280;4028;43.272;26.932;2023-03-03T14:48:23;99046.78;;;10.18;100.00
7966;BME280;4028;43.272;26.932;2023-03-03T14:50:54;99042.63;;;10.15;100.00
7966;BME280;4028;43.272;26.932;2023-03-03T14:53:33;99055.19;;;10.03;100.00
7966;BME280;4028;43.272;26.932;2023-03-03T14:58:48;99042.25;;;9.90;100.00
7966;BME280;4028;43.272;26.932;2023-03-03T15:04:04;99049.63;;;9.97;100.00
7966;BME280;4028;43.272;26.932;2023-03-03T15:06:41;99052.41;;;9.85;100.00
7966;BME280;4028;43.272;26.932;2023-03-03T15:09:40;99046.59;;;9.72;100.00
7966;BME280;4028;43.272;26.932;2023-03-03T15:12:24;99051.03;;;9.72;100.00
7966;BME280;4028;43.272;26.932;2023-03-03T15:17:56;99051.44;;;9.77;100.00
7966;BME280;4028;43.272;26.932;2023-03-03T15:45:43;99070.94;;;9.27;100.00
7966;BME280;4028;43.272;26.932;2023-03-03T15:59:28;99080.19;;;9.02;100.00
7966;BME280;4028;43.272;26.932;2023-03-03T16:05:00;99092.38;;;8.94;100.00
7966;BME280;4028;43.272;26.932;2023-03-03T16:13:52;99089.84;;;8.82;100.00
7966;BME280;4028;43.272;26.932;2023-03-03T16:16:53;99101.50;;;8.70;100.00
7966;BME280;4028;43.272;26.932;2023-03-03T16:19:42;99108.44;;;8.71;100.00
7966;BME280;4028;43.272;26.932;2023-03-03T16:24:57;99101.94;;;8.45;100.00
7966;BME280;4028;43.272;26.932;2023-03-03T16:30:42;99108.00;;;8.66;100.00
7966;BME280;4028;43.272;26.932;2023-03-03T16:38:44;99121.22;;;8.76;100.00
7966;BME280;4028;43.272;26.932;2023-03-03T16:41:42;99125.78;;;8.74;100.00
7966;BME280;4028;43.272;26.932;2023-03-03T16:52:36;99134.47;;;8.55;100.00
7966;BME280;4028;43.272;26.932;2023-03-03T16:55:13;99138.31;;;8.51;100.00
7966;BME280;4028;43.272;26.932;2023-03-03T17:00:39;99135.78;;;8.49;100.00
7966;BME280;4028;43.272;26.932;2023-03-03T17:06:05;99137.72;;;8.47;100.00
7966;BME280;4028;43.272;26.932;2023-03-03T17:11:48;99149.50;;;8.43;100.00
7966;BME280;4028;43.272;26.932;2023-03-03T17:14:46;99145.94;;;8.33;100.00
7966;BME280;4028;43.272;26.932;2023-03-03T17:17:42;99148.84;;;8.30;100.00
7966;BME280;4028;43.272;26.932;2023-03-03T17:31:15;99158.25;;;8.44;100.00
7966;BME280;4028;43.272;26.932;2023-03-03T17:34:19;99155.88;;;8.41;100.00
7966;BME280;4028;43.272;26.932;2023-03-03T17:42:52;99154.81;;;8.32;100.00
7966;BME280;4028;43.272;26.932;2023-03-03T17:45:12;99160.22;;;8.10;100.00
7966;BME280;4028;43.272;26.932;2023-03-03T17:53:56;99167.47;;;7.96;100.00
7966;BME280;4028;43.272;26.932;2023-03-03T17:56:31;99164.50;;;7.90;100.00
7966;BME280;4028;43.272;26.932;2023-03-03T18:07:34;99169.28;;;7.96;100.00
7966;BME280;4028;43.272;26.932;2023-03-03T18:16:15;99176.81;;;8.00;100.00
7966;BME280;4028;43.272;26.932;2023-03-03T18:19:11;99181.34;;;7.98;100.00
7966;BME280;4028;43.272;26.932;2023-03-03T18:21:55;99181.00;;;7.92;100.00
7966;BME280;4028;43.272;26.932;2023-03-03T18:27:32;99181.75;;;7.82;100.00
7966;BME280;4028;43.272;26.932;2023-03-03T18:30:25;99183.69;;;7.80;100.00
7966;BME280;4028;43.272;26.932;2023-03-03T18:46:06;99186.66;;;7.55;100.00
7966;BME280;4028;43.272;26.932;2023-03-03T18:48:51;99199.78;;;7.66;100.00
7966;BME280;4028;43.272;26.932;2023-03-03T19:04:53;99202.19;;;7.69;100.00
7966;BME280;4028;43.272;26.932;2023-03-03T19:07:24;99197.28;;;7.65;100.00